sensor_id;sensor_type;location;lat;lon;timestamp;temperature;humidity
16829;DHT22;8531;48.078;11.968;2023-03-20T00:00:55;9.80;99.90
16829;DHT22;8531;48.078;11.968;2023-03-20T00:03:22;9.80;99.90
16829;DHT22;8531;48.078;11.968;2023-03-20T00:05:47;9.70;99.90
16829;DHT22;8531;48.078;11.968;2023-03-20T00:08:15;9.70;99.90
16829;DHT22;8531;48.078;11.968;2023-03-20T00:10:43;9.70;99.90
16829;DHT22;8531;48.078;11.968;2023-03-20T00:13:24;9.70;99.90
16829;DHT22;8531;48.078;11.968;2023-03-20T00:15:52;9.60;99.90
16829;DHT22;8531;48.078;11.968;2023-03-20T00:18:22;9.60;99.90
16829;DHT22;8531;48.078;11.968;2023-03-20T00:20:50;9.60;99.90
16829;DHT22;8531;48.078;11.968;2023-03-20T00:23:16;9.50;99.90
16829;DHT22;8531;48.078;11.968;2023-03-20T00:25:44;9.50;99.90
16829;DHT22;8531;48.078;11.968;2023-03-20T00:28:39;9.40;99.90
16829;DHT22;8531;48.078;11.968;2023-03-20T00:33:50;9.50;99.90
16829;DHT22;8531;48.078;11.968;2023-03-20T00:36:16;9.50;99.90
16829;DHT22;8531;48.078;11.968;2023-03-20T00:38:42;9.50;99.90
16829;DHT22;8531;48.078;11.968;2023-03-20T00:41:49;9.50;99.90
16829;DHT22;8531;48.078;11.968;2023-03-20T00:44:31;9.50;99.90
16829;DHT22;8531;48.078;11.968;2023-03-20T00:47:03;9.50;99.90
16829;DHT22;8531;48.078;11.968;2023-03-20T00:49:31;9.50;99.90
16829;DHT22;8531;48.078;11.968;2023-03-20T00:51:59;9.50;99.90
16829;DHT22;8531;48.078;11.968;2023-03-20T00:54:26;9.50;99.90
16829;DHT22;8531;48.078;11.968;2023-03-20T00:57:19;9.50;99.90
16829;DHT22;8531;48.078;11.968;2023-03-20T01:00:38;9.50;99.90
16829;DHT22;8531;48.078;11.968;2023-03-20T01:02:43;9.50;99.90
16829;DHT22;8531;48.078;11.968;2023-03-20T01:05:10;9.40;99.90
16829;DHT22;8531;48.078;11.968;2023-03-20T01:07:37;9.40;99.90
16829;DHT22;8531;48.078;11.968;2023-03-20T01:10:04;9.40;99.90
16829;DHT22;8531;48.078;11.968;2023-03-20T01:12:30;9.40;99.90
16829;DHT22;8531;48.078;11.968;2023-03-20T01:14:56;9.40;99.90
16829;DHT22;8531;48.078;11.968;2023-03-20T01:17:24;9.50;99.90
16829;DHT22;8531;48.078;11.968;2023-03-20T01:19:50;9.50;99.90
16829;DHT22;8531;48.078;11.968;2023-03-20T01:22:16;9.50;99.90
16829;DHT22;8531;48.078;11.968;2023-03-20T01:24:45;9.40;99.90
16829;DHT22;8531;48.078;11.968;2023-03-20T01:27:16;9.50;99.90
16829;DHT22;8531;48.078;11.968;2023-03-20T01:29:42;9.50;99.90
16829;DHT22;8531;48.078;11.968;2023-03-20T01:32:11;9.50;99.90
16829;DHT22;8531;48.078;11.968;2023-03-20T01:34:37;9.50;99.90
16829;DHT22;8531;48.078;11.968;2023-03-20T01:37:05;9.50;99.90
16829;DHT22;8531;48.078;11.968;2023-03-20T01:39:34;9.50;99.90
16829;DHT22;8531;48.078;11.968;2023-03-20T01:42:01;9.50;99.90
16829;DHT22;8531;48.078;11.968;2023-03-20T01:44:29;9.50;99.90
16829;DHT22;8531;48.078;11.968;2023-03-20T01:46:55;9.50;99.90
16829;DHT22;8531;48.078;11.968;2023-03-20T01:51:49;9.50;99.90
16829;DHT22;8531;48.078;11.968;2023-03-20T01:54:21;9.40;99.90
16829;DHT22;8531;48.078;11.968;2023-03-20T01:56:58;9.50;99.90
16829;DHT22;8531;48.078;11.968;2023-03-20T02:02:05;9.40;99.90
16829;DHT22;8531;48.078;11.968;2023-03-20T02:04:41;9.50;99.90
16829;DHT22;8531;48.078;11.968;2023-03-20T02:07:09;9.40;99.90
16829;DHT22;8531;48.078;11.968;2023-03-20T02:09:36;9.40;99.90
16829;DHT22;8531;48.078;11.968;2023-03-20T02:12:02;9.40;99.90
16829;DHT22;8531;48.078;11.968;2023-03-20T02:14:28;9.40;99.90
16829;DHT22;8531;48.078;11.968;2023-03-20T02:16:55;9.40;99.90
16829;DHT22;8531;48.078;11.968;2023-03-20T02:19:38;9.40;99.90
16829;DHT22;8531;48.078;11.968;2023-03-20T02:25:09;9.50;99.90
16829;DHT22;8531;48.078;11.968;2023-03-20T02:43:47;9.40;99.90
16829;DHT22;8531;48.078;11.968;2023-03-20T02:46:37;9.30;99.90
16829;DHT22;8531;48.078;11.968;2023-03-20T02:57:22;9.30;99.90
16829;DHT22;8531;48.078;11.968;2023-03-20T03:00:04;9.40;99.90
16829;DHT22;8531;48.078;11.968;2023-03-20T03:02:47;9.30;99.90
16829;DHT22;8531;48.078;11.968;2023-03-20T03:05:22;9.30;99.90
16829;DHT22;8531;48.078;11.968;2023-03-20T03:07:51;9.30;99.90
16829;DHT22;8531;48.078;11.968;2023-03-20T03:10:24;9.30;99.90
16829;DHT22;8531;48.078;11.968;2023-03-20T03:12:52;9.30;99.90
16829;DHT22;8531;48.078;11.968;2023-03-20T03:15:33;9.30;99.90
16829;DHT22;8531;48.078;11.968;2023-03-20T03:18:01;9.30;99.90
16829;DHT22;8531;48.078;11.968;2023-03-20T03:20:30;9.30;99.90
16829;DHT22;8531;48.078;11.968;2023-03-20T03:22:59;9.30;99.90
16829;DHT22;8531;48.078;11.968;2023-03-20T03:25:28;9.30;99.90
16829;DHT22;8531;48.078;11.968;2023-03-20T03:30:37;9.20;99.90
16829;DHT22;8531;48.078;11.968;2023-03-20T03:33:22;9.20;99.90
16829;DHT22;8531;48.078;11.968;2023-03-20T03:35:48;9.20;99.90
16829;DHT22;8531;48.078;11.968;2023-03-20T03:44:09;9.20;99.90
16829;DHT22;8531;48.078;11.968;2023-03-20T03:46:43;9.20;99.90
16829;DHT22;8531;48.078;11.968;2023-03-20T03:49:15;9.20;99.90
16829;DHT22;8531;48.078;11.968;2023-03-20T03:51:46;9.20;99.90
16829;DHT22;8531;48.078;11.968;2023-03-20T03:54:20;9.20;99.90
16829;DHT22;8531;48.078;11.968;2023-03-20T03:56:48;9.20;99.90
16829;DHT22;8531;48.078;11.968;2023-03-20T03:59:38;9.20;99.90
16829;DHT22;8531;48.078;11.968;2023-03-20T04:02:06;9.10;99.90
16829;DHT22;8531;48.078;11.968;2023-03-20T04:04:34;9.20;99.90
16829;DHT22;8531;48.078;11.968;2023-03-20T04:07:01;9.20;99.90
16829;DHT22;8531;48.078;11.968;2023-03-20T04:09:27;9.20;99.90
16829;DHT22;8531;48.078;11.968;2023-03-20T04:11:53;9.20;99.90
16829;DHT22;8531;48.078;11.968;2023-03-20T04:14:19;9.20;99.90
16829;DHT22;8531;48.078;11.968;2023-03-20T04:16:45;9.20;99.90
16829;DHT22;8531;48.078;11.968;2023-03-20T04:19:11;9.20;99.90
16829;DHT22;8531;48.078;11.968;2023-03-20T04:21:37;9.10;99.90
16829;DHT22;8531;48.078;11.968;2023-03-20T04:24:03;9.10;99.90
16829;DHT22;8531;48.078;11.968;2023-03-20T04:26:29;9.10;99.90
16829;DHT22;8531;48.078;11.968;2023-03-20T04:28:55;9.10;99.90
16829;DHT22;8531;48.078;11.968;2023-03-20T04:31:20;9.00;99.90
16829;DHT22;8531;48.078;11.968;2023-03-20T04:33:47;9.00;99.90
16829;DHT22;8531;48.078;11.968;2023-03-20T04:36:12;9.10;99.90
16829;DHT22;8531;48.078;11.968;2023-03-20T04:38:39;9.10;99.90
16829;DHT22;8531;48.078;11.968;2023-03-20T04:41:05;9.20;99.90
16829;DHT22;8531;48.078;11.968;2023-03-20T04:43:31;9.20;99.90
16829;DHT22;8531;48.078;11.968;2023-03-20T04:45:56;9.20;99.90
16829;DHT22;8531;48.078;11.968;2023-03-20T04:48:22;9.20;99.90
16829;DHT22;8531;48.078;11.968;2023-03-20T04:50:48;9.20;99.90
16829;DHT22;8531;48.078;11.968;2023-03-20T04:53:16;9.20;99.90
16829;DHT22;8531;48.078;11.968;2023-03-20T04:55:44;9.20;99.90
16829;DHT22;8531;48.078;11.968;2023-03-20T04:58:10;9.10;99.90
16829;DHT22;8531;48.078;11.968;2023-03-20T05:00:36;9.10;99.90
16829;DHT22;8531;48.078;11.968;2023-03-20T05:03:02;9.20;99.90
16829;DHT22;8531;48.078;11.968;2023-03-20T05:05:28;9.20;99.90
16829;DHT22;8531;48.078;11.968;2023-03-20T05:07:54;9.20;99.90
16829;DHT22;8531;48.078;11.968;2023-03-20T05:10:20;9.20;99.90
16829;DHT22;8531;48.078;11.968;2023-03-20T05:12:47;9.10;99.90
16829;DHT22;8531;48.078;11.968;2023-03-20T05:15:13;9.10;99.90
16829;DHT22;8531;48.078;11.968;2023-03-20T05:17:38;9.10;99.90
16829;DHT22;8531;48.078;11.968;2023-03-20T05:20:05;9.00;99.90
16829;DHT22;8531;48.078;11.968;2023-03-20T05:22:31;9.00;99.90
16829;DHT22;8531;48.078;11.968;2023-03-20T05:24:57;9.00;99.90
16829;DHT22;8531;48.078;11.968;2023-03-20T05:27:22;9.00;99.90
16829;DHT22;8531;48.078;11.968;2023-03-20T05:29:48;9.00;99.90
16829;DHT22;8531;48.078;11.968;2023-03-20T05:32:14;9.00;99.90
16829;DHT22;8531;48.078;11.968;2023-03-20T05:34:39;9.00;99.90
16829;DHT22;8531;48.078;11.968;2023-03-20T05:37:05;9.00;99.90
16829;DHT22;8531;48.078;11.968;2023-03-20T05:39:31;8.90;99.90
16829;DHT22;8531;48.078;11.968;2023-03-20T05:41:56;8.90;99.90
16829;DHT22;8531;48.078;11.968;2023-03-20T05:44:22;8.90;99.90
16829;DHT22;8531;48.078;11.968;2023-03-20T05:46:48;8.90;99.90
16829;DHT22;8531;48.078;11.968;2023-03-20T05:49:14;8.90;99.90
16829;DHT22;8531;48.078;11.968;2023-03-20T05:54:05;8.90;99.90
16829;DHT22;8531;48.078;11.968;2023-03-20T05:56:31;8.90;99.90
16829;DHT22;8531;48.078;11.968;2023-03-20T05:58:57;8.90;99.90
16829;DHT22;8531;48.078;11.968;2023-03-20T06:01:22;8.80;99.90
16829;DHT22;8531;48.078;11.968;2023-03-20T06:03:48;8.80;99.90
16829;DHT22;8531;48.078;11.968;2023-03-20T06:06:15;8.80;99.90
16829;DHT22;8531;48.078;11.968;2023-03-20T06:08:41;8.80;99.90
16829;DHT22;8531;48.078;11.968;2023-03-20T06:11:08;8.90;99.90
16829;DHT22;8531;48.078;11.968;2023-03-20T06:13:33;8.90;99.90
16829;DHT22;8531;48.078;11.968;2023-03-20T06:16:00;8.90;99.90
16829;DHT22;8531;48.078;11.968;2023-03-20T06:18:26;8.90;99.90
16829;DHT22;8531;48.078;11.968;2023-03-20T06:20:53;8.90;99.90
16829;DHT22;8531;48.078;11.968;2023-03-20T06:23:19;8.80;99.90
16829;DHT22;8531;48.078;11.968;2023-03-20T06:25:45;8.80;99.90
16829;DHT22;8531;48.078;11.968;2023-03-20T06:28:10;8.70;99.90
16829;DHT22;8531;48.078;11.968;2023-03-20T06:30:37;8.70;99.90
16829;DHT22;8531;48.078;11.968;2023-03-20T06:33:04;8.80;99.90
16829;DHT22;8531;48.078;11.968;2023-03-20T06:35:31;8.80;99.90
16829;DHT22;8531;48.078;11.968;2023-03-20T06:37:57;8.80;99.90
16829;DHT22;8531;48.078;11.968;2023-03-20T06:40:23;8.90;99.90
16829;DHT22;8531;48.078;11.968;2023-03-20T06:42:49;8.90;99.90
16829;DHT22;8531;48.078;11.968;2023-03-20T06:45:15;8.90;99.90
16829;DHT22;8531;48.078;11.968;2023-03-20T06:47:40;8.90;99.90
16829;DHT22;8531;48.078;11.968;2023-03-20T06:50:07;8.90;99.90
16829;DHT22;8531;48.078;11.968;2023-03-20T06:52:33;8.90;99.90
16829;DHT22;8531;48.078;11.968;2023-03-20T06:55:00;8.90;99.90
16829;DHT22;8531;48.078;11.968;2023-03-20T06:57:26;8.90;99.90
16829;DHT22;8531;48.078;11.968;2023-03-20T06:59:51;9.00;99.90
16829;DHT22;8531;48.078;11.968;2023-03-20T07:02:19;8.90;99.90
16829;DHT22;8531;48.078;11.968;2023-03-20T07:04:45;8.90;99.90
16829;DHT22;8531;48.078;11.968;2023-03-20T07:07:11;8.90;99.90
16829;DHT22;8531;48.078;11.968;2023-03-20T07:09:37;8.80;99.90
16829;DHT22;8531;48.078;11.968;2023-03-20T07:12:03;8.80;99.90
16829;DHT22;8531;48.078;11.968;2023-03-20T07:14:29;8.80;99.90
16829;DHT22;8531;48.078;11.968;2023-03-20T07:16:55;8.80;99.90
16829;DHT22;8531;48.078;11.968;2023-03-20T07:19:21;8.80;99.90
16829;DHT22;8531;48.078;11.968;2023-03-20T07:21:47;8.90;99.90
16829;DHT22;8531;48.078;11.968;2023-03-20T07:24:13;9.00;99.90
16829;DHT22;8531;48.078;11.968;2023-03-20T07:26:39;9.00;99.90
16829;DHT22;8531;48.078;11.968;2023-03-20T07:29:05;9.00;99.90
16829;DHT22;8531;48.078;11.968;2023-03-20T07:31:31;9.00;99.90
16829;DHT22;8531;48.078;11.968;2023-03-20T07:33:57;9.10;99.90
16829;DHT22;8531;48.078;11.968;2023-03-20T07:36:23;9.10;99.90
16829;DHT22;8531;48.078;11.968;2023-03-20T07:38:49;9.10;99.90
16829;DHT22;8531;48.078;11.968;2023-03-20T07:41:15;9.10;99.90
16829;DHT22;8531;48.078;11.968;2023-03-20T07:43:41;9.20;99.90
16829;DHT22;8531;48.078;11.968;2023-03-20T07:46:08;9.20;99.90
16829;DHT22;8531;48.078;11.968;2023-03-20T07:48:34;9.20;99.90
16829;DHT22;8531;48.078;11.968;2023-03-20T07:51:01;9.30;99.90
16829;DHT22;8531;48.078;11.968;2023-03-20T07:53:27;9.30;99.90
16829;DHT22;8531;48.078;11.968;2023-03-20T07:55:53;9.30;99.90
16829;DHT22;8531;48.078;11.968;2023-03-20T07:58:18;9.40;99.90
16829;DHT22;8531;48.078;11.968;2023-03-20T08:00:44;9.40;99.90
16829;DHT22;8531;48.078;11.968;2023-03-20T08:03:10;9.40;99.90
16829;DHT22;8531;48.078;11.968;2023-03-20T08:05:36;9.40;99.90
16829;DHT22;8531;48.078;11.968;2023-03-20T08:08:02;9.40;99.90
16829;DHT22;8531;48.078;11.968;2023-03-20T08:10:28;9.50;99.90
16829;DHT22;8531;48.078;11.968;2023-03-20T08:12:54;9.50;99.90
16829;DHT22;8531;48.078;11.968;2023-03-20T08:15:21;9.50;99.90
16829;DHT22;8531;48.078;11.968;2023-03-20T08:17:46;9.50;99.90
16829;DHT22;8531;48.078;11.968;2023-03-20T08:20:14;9.50;99.90
16829;DHT22;8531;48.078;11.968;2023-03-20T08:22:40;9.60;99.90
16829;DHT22;8531;48.078;11.968;2023-03-20T08:25:08;9.60;99.90
16829;DHT22;8531;48.078;11.968;2023-03-20T08:27:36;9.80;99.90
16829;DHT22;8531;48.078;11.968;2023-03-20T08:30:03;9.80;99.90
16829;DHT22;8531;48.078;11.968;2023-03-20T08:32:29;9.80;99.90
16829;DHT22;8531;48.078;11.968;2023-03-20T08:34:55;9.90;99.90
16829;DHT22;8531;48.078;11.968;2023-03-20T08:37:21;9.90;99.90
16829;DHT22;8531;48.078;11.968;2023-03-20T08:39:47;9.90;99.90
16829;DHT22;8531;48.078;11.968;2023-03-20T08:42:13;9.90;99.90
16829;DHT22;8531;48.078;11.968;2023-03-20T08:44:39;9.90;99.90
16829;DHT22;8531;48.078;11.968;2023-03-20T08:47:05;10.00;99.90
16829;DHT22;8531;48.078;11.968;2023-03-20T08:49:33;10.00;99.90
16829;DHT22;8531;48.078;11.968;2023-03-20T08:51:59;10.00;99.90
16829;DHT22;8531;48.078;11.968;2023-03-20T08:54:25;10.00;99.90
16829;DHT22;8531;48.078;11.968;2023-03-20T08:56:51;10.10;99.90
16829;DHT22;8531;48.078;11.968;2023-03-20T08:59:16;10.10;99.90
16829;DHT22;8531;48.078;11.968;2023-03-20T09:01:44;10.10;99.90
16829;DHT22;8531;48.078;11.968;2023-03-20T09:04:10;10.10;99.90
16829;DHT22;8531;48.078;11.968;2023-03-20T09:06:37;10.00;99.90
16829;DHT22;8531;48.078;11.968;2023-03-20T09:09:03;10.10;99.90
16829;DHT22;8531;48.078;11.968;2023-03-20T09:11:30;10.10;99.90
16829;DHT22;8531;48.078;11.968;2023-03-20T09:13:56;10.20;99.90
16829;DHT22;8531;48.078;11.968;2023-03-20T09:16:22;10.40;99.90
16829;DHT22;8531;48.078;11.968;2023-03-20T09:18:48;10.50;99.90
16829;DHT22;8531;48.078;11.968;2023-03-20T09:21:13;10.60;99.90
16829;DHT22;8531;48.078;11.968;2023-03-20T09:23:39;10.60;99.90
16829;DHT22;8531;48.078;11.968;2023-03-20T09:26:05;10.60;99.90
16829;DHT22;8531;48.078;11.968;2023-03-20T09:28:31;10.60;99.90
16829;DHT22;8531;48.078;11.968;2023-03-20T09:30:57;10.60;99.90
16829;DHT22;8531;48.078;11.968;2023-03-20T09:33:24;10.70;99.90
16829;DHT22;8531;48.078;11.968;2023-03-20T09:35:50;10.70;99.90
16829;DHT22;8531;48.078;11.968;2023-03-20T09:38:15;10.90;99.90
16829;DHT22;8531;48.078;11.968;2023-03-20T09:43:17;11.00;99.90
16829;DHT22;8531;48.078;11.968;2023-03-20T09:48:46;11.00;99.90
16829;DHT22;8531;48.078;11.968;2023-03-20T09:51:37;11.00;99.90
16829;DHT22;8531;48.078;11.968;2023-03-20T09:54:30;11.00;99.90
16829;DHT22;8531;48.078;11.968;2023-03-20T09:56:58;11.20;99.90
16829;DHT22;8531;48.078;11.968;2023-03-20T09:59:26;11.40;99.90
16829;DHT22;8531;48.078;11.968;2023-03-20T10:02:10;11.70;99.90
16829;DHT22;8531;48.078;11.968;2023-03-20T10:04:38;11.80;99.90
16829;DHT22;8531;48.078;11.968;2023-03-20T10:07:08;12.10;99.90
16829;DHT22;8531;48.078;11.968;2023-03-20T10:09:35;12.20;99.90
16829;DHT22;8531;48.078;11.968;2023-03-20T10:15:09;12.20;99.90
16829;DHT22;8531;48.078;11.968;2023-03-20T10:20:47;12.00;99.90
16829;DHT22;8531;48.078;11.968;2023-03-20T10:26:16;12.10;99.90
16829;DHT22;8531;48.078;11.968;2023-03-20T10:28:54;12.00;99.90
16829;DHT22;8531;48.078;11.968;2023-03-20T10:31:33;12.10;99.90
16829;DHT22;8531;48.078;11.968;2023-03-20T10:42:29;12.10;99.90
16829;DHT22;8531;48.078;11.968;2023-03-20T10:45:03;12.20;99.90
16829;DHT22;8531;48.078;11.968;2023-03-20T10:47:34;12.20;99.90
16829;DHT22;8531;48.078;11.968;2023-03-20T10:50:06;12.10;99.90
16829;DHT22;8531;48.078;11.968;2023-03-20T10:52:37;12.10;99.90
16829;DHT22;8531;48.078;11.968;2023-03-20T10:55:09;12.30;99.90
16829;DHT22;8531;48.078;11.968;2023-03-20T10:57:39;12.30;99.90
16829;DHT22;8531;48.078;11.968;2023-03-20T11:00:17;12.40;99.90
16829;DHT22;8531;48.078;11.968;2023-03-20T11:02:44;12.70;99.90
16829;DHT22;8531;48.078;11.968;2023-03-20T11:05:22;13.00;99.90
16829;DHT22;8531;48.078;11.968;2023-03-20T11:07:51;13.20;99.90
16829;DHT22;8531;48.078;11.968;2023-03-20T11:10:25;13.50;99.90
16829;DHT22;8531;48.078;11.968;2023-03-20T11:12:51;13.50;99.90
16829;DHT22;8531;48.078;11.968;2023-03-20T11:15:32;13.40;99.90
16829;DHT22;8531;48.078;11.968;2023-03-20T11:18:04;13.40;99.90
16829;DHT22;8531;48.078;11.968;2023-03-20T11:20:39;13.20;99.90
16829;DHT22;8531;48.078;11.968;2023-03-20T11:23:14;13.10;99.90
16829;DHT22;8531;48.078;11.968;2023-03-20T11:25:51;13.00;99.90
16829;DHT22;8531;48.078;11.968;2023-03-20T11:28:30;13.00;99.90
16829;DHT22;8531;48.078;11.968;2023-03-20T11:31:06;13.00;99.90
16829;DHT22;8531;48.078;11.968;2023-03-20T11:33:44;13.10;99.90
16829;DHT22;8531;48.078;11.968;2023-03-20T11:36:26;13.20;99.90
16829;DHT22;8531;48.078;11.968;2023-03-20T11:39:00;13.30;99.90
16829;DHT22;8531;48.078;11.968;2023-03-20T11:41:27;13.40;99.90
16829;DHT22;8531;48.078;11.968;2023-03-20T11:43:53;13.40;99.90
16829;DHT22;8531;48.078;11.968;2023-03-20T11:46:20;13.50;99.90
16829;DHT22;8531;48.078;11.968;2023-03-20T11:49:06;13.70;99.90
16829;DHT22;8531;48.078;11.968;2023-03-20T11:51:33;13.80;99.90
16829;DHT22;8531;48.078;11.968;2023-03-20T11:54:02;13.80;99.90
16829;DHT22;8531;48.078;11.968;2023-03-20T11:56:31;13.90;99.90
16829;DHT22;8531;48.078;11.968;2023-03-20T11:59:12;14.10;99.90
16829;DHT22;8531;48.078;11.968;2023-03-20T12:01:50;14.10;99.90
16829;DHT22;8531;48.078;11.968;2023-03-20T12:04:39;14.30;99.90
16829;DHT22;8531;48.078;11.968;2023-03-20T12:07:32;14.60;99.90
16829;DHT22;8531;48.078;11.968;2023-03-20T12:10:05;14.90;99.90
16829;DHT22;8531;48.078;11.968;2023-03-20T12:12:52;15.10;99.90
16829;DHT22;8531;48.078;11.968;2023-03-20T12:15:29;14.90;99.90
16829;DHT22;8531;48.078;11.968;2023-03-20T12:20:40;15.10;99.90
16829;DHT22;8531;48.078;11.968;2023-03-20T12:25:58;14.70;99.90
16829;DHT22;8531;48.078;11.968;2023-03-20T12:31:23;14.90;99.90
16829;DHT22;8531;48.078;11.968;2023-03-20T12:34:04;15.30;99.90
16829;DHT22;8531;48.078;11.968;2023-03-20T12:36:37;15.30;99.90
16829;DHT22;8531;48.078;11.968;2023-03-20T12:39:20;15.10;99.90
16829;DHT22;8531;48.078;11.968;2023-03-20T12:50:29;14.80;99.90
16829;DHT22;8531;48.078;11.968;2023-03-20T12:56:12;14.70;99.90
16829;DHT22;8531;48.078;11.968;2023-03-20T12:59:01;14.70;99.90
16829;DHT22;8531;48.078;11.968;2023-03-20T13:01:52;14.70;99.90
16829;DHT22;8531;48.078;11.968;2023-03-20T13:07:17;14.70;99.90
16829;DHT22;8531;48.078;11.968;2023-03-20T13:18:21;14.60;99.90
16829;DHT22;8531;48.078;11.968;2023-03-20T13:20:56;14.60;99.90
16829;DHT22;8531;48.078;11.968;2023-03-20T13:26:11;14.30;99.90
16829;DHT22;8531;48.078;11.968;2023-03-20T13:39:09;13.90;99.90
16829;DHT22;8531;48.078;11.968;2023-03-20T13:41:38;13.90;99.90
16829;DHT22;8531;48.078;11.968;2023-03-20T13:44:05;13.90;99.90
16829;DHT22;8531;48.078;11.968;2023-03-20T13:46:35;13.90;99.90
16829;DHT22;8531;48.078;11.968;2023-03-20T13:49:12;14.00;99.90
16829;DHT22;8531;48.078;11.968;2023-03-20T13:51:43;13.90;99.90
16829;DHT22;8531;48.078;11.968;2023-03-20T13:59:29;14.10;99.90
16829;DHT22;8531;48.078;11.968;2023-03-20T14:04:52;14.20;99.90
16829;DHT22;8531;48.078;11.968;2023-03-20T14:07:34;14.20;99.90
16829;DHT22;8531;48.078;11.968;2023-03-20T14:15:23;14.30;99.90
16829;DHT22;8531;48.078;11.968;2023-03-20T14:17:51;14.10;99.90
16829;DHT22;8531;48.078;11.968;2023-03-20T14:20:43;14.20;99.90
16829;DHT22;8531;48.078;11.968;2023-03-20T14:23:25;14.40;99.90
16829;DHT22;8531;48.078;11.968;2023-03-20T14:25:53;14.60;99.90
16829;DHT22;8531;48.078;11.968;2023-03-20T14:30:46;15.00;99.90
16829;DHT22;8531;48.078;11.968;2023-03-20T14:36:26;15.10;99.90
16829;DHT22;8531;48.078;11.968;2023-03-20T14:38:38;15.10;99.90
16829;DHT22;8531;48.078;11.968;2023-03-20T14:41:29;15.50;99.90
16829;DHT22;8531;48.078;11.968;2023-03-20T14:46:32;15.90;99.90
16829;DHT22;8531;48.078;11.968;2023-03-20T14:49:22;15.50;99.90
16829;DHT22;8531;48.078;11.968;2023-03-20T14:51:49;15.30;99.90
16829;DHT22;8531;48.078;11.968;2023-03-20T14:56:50;15.00;99.90
16829;DHT22;8531;48.078;11.968;2023-03-20T14:59:21;15.10;99.90
16829;DHT22;8531;48.078;11.968;2023-03-20T15:01:55;15.00;99.90
16829;DHT22;8531;48.078;11.968;2023-03-20T15:07:09;15.20;99.90
16829;DHT22;8531;48.078;11.968;2023-03-20T15:09:41;15.40;99.90
16829;DHT22;8531;48.078;11.968;2023-03-20T15:12:09;15.70;99.90
16829;DHT22;8531;48.078;11.968;2023-03-20T15:14:43;15.60;99.90
16829;DHT22;8531;48.078;11.968;2023-03-20T15:17:20;15.40;99.90
16829;DHT22;8531;48.078;11.968;2023-03-20T15:19:46;15.10;99.90
16829;DHT22;8531;48.078;11.968;2023-03-20T15:22:19;14.90;99.90
16829;DHT22;8531;48.078;11.968;2023-03-20T15:24:54;14.70;99.90
16829;DHT22;8531;48.078;11.968;2023-03-20T15:27:22;14.70;99.90
16829;DHT22;8531;48.078;11.968;2023-03-20T15:29:53;14.60;99.90
16829;DHT22;8531;48.078;11.968;2023-03-20T15:32:19;14.60;99.90
16829;DHT22;8531;48.078;11.968;2023-03-20T15:34:46;14.50;99.90
16829;DHT22;8531;48.078;11.968;2023-03-20T15:37:20;14.60;99.90
16829;DHT22;8531;48.078;11.968;2023-03-20T15:39:50;14.60;99.90
16829;DHT22;8531;48.078;11.968;2023-03-20T15:42:19;14.50;99.90
16829;DHT22;8531;48.078;11.968;2023-03-20T15:44:47;14.50;99.90
16829;DHT22;8531;48.078;11.968;2023-03-20T15:47:19;14.50;99.90
16829;DHT22;8531;48.078;11.968;2023-03-20T15:49:59;14.40;99.90
16829;DHT22;8531;48.078;11.968;2023-03-20T15:52:36;14.30;99.90
16829;DHT22;8531;48.078;11.968;2023-03-20T15:55:06;14.40;99.90
16829;DHT22;8531;48.078;11.968;2023-03-20T15:57:37;14.60;99.90
16829;DHT22;8531;48.078;11.968;2023-03-20T16:00:12;14.80;99.90
16829;DHT22;8531;48.078;11.968;2023-03-20T16:02:39;14.80;99.90
16829;DHT22;8531;48.078;11.968;2023-03-20T16:05:11;14.70;99.90
16829;DHT22;8531;48.078;11.968;2023-03-20T16:07:37;14.60;99.90
16829;DHT22;8531;48.078;11.968;2023-03-20T16:10:19;14.50;99.90
16829;DHT22;8531;48.078;11.968;2023-03-20T16:12:49;14.40;99.90
16829;DHT22;8531;48.078;11.968;2023-03-20T16:15:16;14.30;99.90
16829;DHT22;8531;48.078;11.968;2023-03-20T16:17:44;14.20;99.90
16829;DHT22;8531;48.078;11.968;2023-03-20T16:20:14;14.20;99.90
16829;DHT22;8531;48.078;11.968;2023-03-20T16:22:42;14.10;99.90
16829;DHT22;8531;48.078;11.968;2023-03-20T16:25:11;14.00;99.90
16829;DHT22;8531;48.078;11.968;2023-03-20T16:27:39;14.00;99.90
16829;DHT22;8531;48.078;11.968;2023-03-20T16:30:11;13.80;99.90
16829;DHT22;8531;48.078;11.968;2023-03-20T16:32:40;13.80;99.90
16829;DHT22;8531;48.078;11.968;2023-03-20T16:35:17;13.80;99.90
16829;DHT22;8531;48.078;11.968;2023-03-20T16:37:51;13.70;99.90
16829;DHT22;8531;48.078;11.968;2023-03-20T16:40:36;13.70;99.90
16829;DHT22;8531;48.078;11.968;2023-03-20T16:45:36;13.50;99.90
16829;DHT22;8531;48.078;11.968;2023-03-20T16:50:45;13.50;99.90
16829;DHT22;8531;48.078;11.968;2023-03-20T16:53:17;13.40;99.90
16829;DHT22;8531;48.078;11.968;2023-03-20T16:55:47;13.20;99.90
16829;DHT22;8531;48.078;11.968;2023-03-20T16:58:20;13.30;99.90
16829;DHT22;8531;48.078;11.968;2023-03-20T17:00:59;13.20;99.90
16829;DHT22;8531;48.078;11.968;2023-03-20T17:06:30;13.00;99.90
16829;DHT22;8531;48.078;11.968;2023-03-20T17:09:23;12.90;99.90
16829;DHT22;8531;48.078;11.968;2023-03-20T17:12:12;12.90;99.90
16829;DHT22;8531;48.078;11.968;2023-03-20T17:14:38;12.90;99.90
16829;DHT22;8531;48.078;11.968;2023-03-20T17:17:14;12.80;99.90
16829;DHT22;8531;48.078;11.968;2023-03-20T17:19:40;12.70;99.90
16829;DHT22;8531;48.078;11.968;2023-03-20T17:22:23;12.70;99.90
16829;DHT22;8531;48.078;11.968;2023-03-20T17:24:50;12.60;99.90
16829;DHT22;8531;48.078;11.968;2023-03-20T17:27:18;12.50;99.90
16829;DHT22;8531;48.078;11.968;2023-03-20T17:29:44;12.50;99.90
16829;DHT22;8531;48.078;11.968;2023-03-20T17:32:13;12.50;99.90
16829;DHT22;8531;48.078;11.968;2023-03-20T17:34:39;12.40;99.90
16829;DHT22;8531;48.078;11.968;2023-03-20T17:37:08;12.30;99.90
16829;DHT22;8531;48.078;11.968;2023-03-20T17:39:35;12.20;99.90
16829;DHT22;8531;48.078;11.968;2023-03-20T17:42:01;12.20;99.90
16829;DHT22;8531;48.078;11.968;2023-03-20T17:44:27;12.20;99.90
16829;DHT22;8531;48.078;11.968;2023-03-20T17:46:53;12.20;99.90
16829;DHT22;8531;48.078;11.968;2023-03-20T17:49:20;12.00;99.90
16829;DHT22;8531;48.078;11.968;2023-03-20T17:51:51;12.00;99.90
16829;DHT22;8531;48.078;11.968;2023-03-20T17:54:17;11.90;99.90
16829;DHT22;8531;48.078;11.968;2023-03-20T17:56:43;11.80;99.90
16829;DHT22;8531;48.078;11.968;2023-03-20T17:59:12;11.70;99.90
16829;DHT22;8531;48.078;11.968;2023-03-20T18:01:38;11.60;99.90
16829;DHT22;8531;48.078;11.968;2023-03-20T18:04:04;11.60;99.90
16829;DHT22;8531;48.078;11.968;2023-03-20T18:06:31;11.60;99.90
16829;DHT22;8531;48.078;11.968;2023-03-20T18:08:59;11.50;99.90
16829;DHT22;8531;48.078;11.968;2023-03-20T18:11:26;11.50;99.90
16829;DHT22;8531;48.078;11.968;2023-03-20T18:13:52;11.40;99.90
16829;DHT22;8531;48.078;11.968;2023-03-20T18:16:21;11.40;99.90
16829;DHT22;8531;48.078;11.968;2023-03-20T18:18:47;11.30;99.90
16829;DHT22;8531;48.078;11.968;2023-03-20T18:21:15;11.20;99.90
16829;DHT22;8531;48.078;11.968;2023-03-20T18:23:42;11.20;99.90